createdAt,value
2019-04-05T00:01:30.219Z,98119.25
2019-04-05T00:03:56.158Z,98118.63
2019-04-05T00:06:22.272Z,98117.53
2019-04-05T00:08:50.143Z,98116.20
2019-04-05T00:11:15.982Z,98123.67
2019-04-05T00:13:41.695Z,98118.84
2019-04-05T00:16:08.356Z,98114.81
2019-04-05T00:18:34.086Z,98121.41
2019-04-05T00:20:59.821Z,98118.11
2019-04-05T00:23:25.589Z,98113.83
2019-04-05T00:25:51.435Z,98111.66
2019-04-05T00:28:18.174Z,98107.71
2019-04-05T00:30:43.981Z,98108.16
2019-04-05T00:33:09.735Z,98109.62
2019-04-05T00:35:35.420Z,98100.17
2019-04-05T00:38:01.264Z,98094.23
2019-04-05T00:40:27.059Z,98082.38
2019-04-05T00:42:52.832Z,98071.69
2019-04-05T00:45:27.983Z,98062.91
2019-04-05T00:47:46.508Z,98062.20
2019-04-05T00:50:12.476Z,98070.19
2019-04-05T00:52:38.318Z,98074.09
2019-04-05T00:55:04.832Z,98073.84
2019-04-05T00:57:30.500Z,98072.53
2019-04-05T00:59:56.465Z,98074.17
2019-04-05T01:02:22.185Z,98080.84
2019-04-05T01:04:47.952Z,98084.09
2019-04-05T01:07:13.766Z,98088.86
2019-04-05T01:09:39.581Z,98084.36
2019-04-05T01:12:05.518Z,98093.98
2019-04-05T01:14:31.338Z,98104.34
2019-04-05T01:16:57.139Z,98104.30
2019-04-05T01:19:24.887Z,98104.45
2019-04-05T01:21:52.562Z,98107.16
2019-04-05T01:24:18.725Z,98105.84
2019-04-05T01:26:45.298Z,98104.55
2019-04-05T01:29:11.451Z,98101.27
2019-04-05T01:31:37.189Z,98101.05
2019-04-05T01:34:05.383Z,98097.73
2019-04-05T01:36:30.811Z,98099.11
2019-04-05T01:38:56.707Z,98099.67
2019-04-05T01:41:22.508Z,98095.63
2019-04-05T01:43:48.512Z,98099.25
2019-04-05T01:46:14.184Z,98090.50
2019-04-05T01:48:40.166Z,98100.45
2019-04-05T01:51:06.125Z,98103.16
2019-04-05T01:53:31.941Z,98104.55
2019-04-05T01:55:57.749Z,98111.27
2019-04-05T01:58:23.647Z,98111.44
2019-04-05T02:00:49.450Z,98111.58
2019-04-05T02:03:15.209Z,98107.72
2019-04-05T02:05:41.325Z,98111.44
2019-04-05T02:08:07.119Z,98123.30
2019-04-05T02:10:32.923Z,98127.31
2019-04-05T02:12:58.727Z,98137.78
2019-04-05T02:15:25.663Z,98129.58
2019-04-05T02:17:51.470Z,98122.53
2019-04-05T02:20:17.369Z,98122.97
2019-04-05T02:22:43.196Z,98121.43
2019-04-05T02:25:08.991Z,98124.31
2019-04-05T02:27:34.791Z,98127.16
2019-04-05T02:30:01.846Z,98126.07
2019-04-05T02:32:27.641Z,98128.34
2019-04-05T02:34:53.425Z,98121.05
2019-04-05T02:37:19.212Z,98128.02
2019-04-05T02:39:44.909Z,98126.86
2019-04-05T02:42:11.132Z,98129.27
2019-04-05T02:44:37.761Z,98129.48
2019-04-05T02:47:04.443Z,98126.77
2019-04-05T02:49:31.162Z,98125.23
2019-04-05T02:51:58.787Z,98127.09
2019-04-05T02:54:24.937Z,98128.72
2019-04-05T02:56:51.108Z,98131.75
2019-04-05T02:59:17.625Z,98132.29
2019-04-05T03:01:43.822Z,98137.06
2019-04-05T03:04:09.622Z,98130.27
2019-04-05T03:06:35.654Z,98130.20
2019-04-05T03:09:03.839Z,98135.30
2019-04-05T03:11:31.238Z,98134.30
2019-04-05T03:13:58.883Z,98125.94
2019-04-05T03:16:39.607Z,98131.28
2019-04-05T03:18:56.022Z,98124.07
2019-04-05T03:21:23.333Z,98126.63
2019-04-05T03:23:50.217Z,98117.47
2019-04-05T03:26:17.511Z,98119.19
2019-04-05T03:28:45.143Z,98116.41
2019-04-05T03:31:11.257Z,98112.82
2019-04-05T03:33:37.087Z,98104.39
2019-04-05T03:36:03.056Z,98107.62
2019-04-05T03:38:28.953Z,98108.89
2019-04-05T03:40:54.744Z,98111.28
2019-04-05T03:43:20.591Z,98106.78
2019-04-05T03:45:46.410Z,98110.83
2019-04-05T03:48:14.232Z,98112.84
2019-04-05T03:50:40.135Z,98119.66
2019-04-05T03:53:06.312Z,98112.74
2019-04-05T03:55:32.146Z,98110.37
2019-04-05T03:57:58.026Z,98112.44
2019-04-05T04:00:23.899Z,98109.03
2019-04-05T04:02:49.847Z,98112.53
2019-04-05T04:05:15.793Z,98110.74
2019-04-05T04:07:41.664Z,98109.20
2019-04-05T04:10:09.436Z,98109.11
2019-04-05T04:12:35.218Z,98111.41
2019-04-05T04:15:14.005Z,98108.02
2019-04-05T04:17:42.229Z,98115.36
2019-04-05T04:20:09.928Z,98120.28
2019-04-05T04:22:35.769Z,98125.77
2019-04-05T04:25:01.716Z,98132.27
2019-04-05T04:27:28.331Z,98142.18
2019-04-05T04:29:54.548Z,98139.09
2019-04-05T04:32:20.281Z,98149.72
2019-04-05T04:34:46.340Z,98139.33
2019-04-05T04:37:12.131Z,98150.27
2019-04-05T04:39:38.211Z,98154.06
2019-04-05T04:42:04.061Z,98156.93
2019-04-05T04:44:29.923Z,98162.09
2019-04-05T04:46:55.918Z,98162.97
2019-04-05T04:49:21.820Z,98164.20
2019-04-05T04:51:48.327Z,98169.23
2019-04-05T04:54:14.177Z,98167.70
2019-04-05T04:56:43.486Z,98180.79
2019-04-05T04:59:09.195Z,98181.95
2019-04-05T05:01:35.262Z,98184.97
2019-04-05T05:04:01.353Z,98189.10
2019-04-05T05:06:27.342Z,98200.52
2019-04-05T05:08:53.380Z,98197.97
2019-04-05T05:11:19.198Z,98207.07
2019-04-05T05:13:44.997Z,98205.95
2019-04-05T05:16:10.894Z,98222.25
2019-04-05T05:18:37.440Z,98226.38
2019-04-05T05:21:03.553Z,98227.96
2019-04-05T05:23:29.440Z,98224.72
2019-04-05T05:25:55.227Z,98233.59
2019-04-05T05:28:21.104Z,98236.58
2019-04-05T05:30:47.071Z,98234.64
2019-04-05T05:33:14.543Z,98236.22
2019-04-05T05:35:40.447Z,98246.44
2019-04-05T05:38:06.331Z,98243.66
2019-04-05T05:40:35.146Z,98254.45
2019-04-05T05:42:59.852Z,98256.63
2019-04-05T05:45:25.695Z,98261.53
2019-04-05T05:47:52.587Z,98274.41
2019-04-05T05:50:18.530Z,98278.89
2019-04-05T05:52:44.497Z,98288.69
2019-04-05T05:55:10.287Z,98285.62
2019-04-05T05:57:36.078Z,98296.29
2019-04-05T06:00:03.209Z,98290.24
2019-04-05T06:02:29.060Z,98290.52
2019-04-05T06:04:55.232Z,98276.63
2019-04-05T06:07:20.928Z,98275.52
2019-04-05T06:09:47.771Z,98279.22
2019-04-05T06:12:13.659Z,98277.88
2019-04-05T06:14:39.570Z,98279.39
2019-04-05T06:17:05.354Z,98275.77
2019-04-05T06:19:31.128Z,98279.33
2019-04-05T06:21:56.822Z,98276.19
2019-04-05T06:24:23.027Z,98277.36
2019-04-05T06:26:48.763Z,98271.91
2019-04-05T06:29:14.539Z,98277.98
2019-04-05T06:31:40.439Z,98284.11
2019-04-05T06:34:06.131Z,98276.29
2019-04-05T06:36:31.835Z,98270.70
2019-04-05T06:38:57.548Z,98273.83
2019-04-05T06:41:23.330Z,98280.91
2019-04-05T06:43:48.999Z,98273.42
2019-04-05T06:46:14.730Z,98267.24
2019-04-05T06:48:40.495Z,98259.59
2019-04-05T06:51:06.320Z,98265.34
2019-04-05T06:53:32.063Z,98268.27
2019-04-05T06:55:59.791Z,98276.88
2019-04-05T06:58:28.887Z,98271.31
2019-04-05T07:00:57.178Z,98273.02
2019-04-05T07:03:20.721Z,98271.78
2019-04-05T07:05:46.609Z,98275.52
2019-04-05T07:08:12.368Z,98275.34
2019-04-05T07:10:38.176Z,98274.17
2019-04-05T07:13:04.583Z,98272.78
2019-04-05T07:15:30.591Z,98278.46
2019-04-05T07:17:56.280Z,98287.92
2019-04-05T07:20:23.784Z,98302.34
2019-04-05T07:22:49.735Z,98301.15
2019-04-05T07:25:15.422Z,98302.74
2019-04-05T07:27:41.378Z,98300.29
2019-04-05T07:30:07.194Z,98301.84
2019-04-05T07:32:33.004Z,98304.13
2019-04-05T07:34:59.641Z,98313.94
2019-04-05T07:37:25.419Z,98320.07
2019-04-05T07:39:51.126Z,98323.15
2019-04-05T07:42:16.832Z,98327.77
2019-04-05T07:44:42.518Z,98341.45
2019-04-05T07:47:08.219Z,98338.91
2019-04-05T07:49:33.910Z,98341.23
2019-04-05T07:51:59.747Z,98339.46
2019-04-05T07:54:25.444Z,98338.80
2019-04-05T07:56:51.209Z,98342.40
2019-04-05T07:59:17.043Z,98343.62
2019-04-05T08:01:42.948Z,98348.33
2019-04-05T08:04:08.669Z,98353.95
2019-04-05T08:06:36.050Z,98361.91
2019-04-05T08:09:06.757Z,98360.70
2019-04-05T08:11:32.623Z,98366.86
2019-04-05T08:14:00.307Z,98368.52
2019-04-05T08:16:26.390Z,98373.57
2019-04-05T08:18:57.904Z,98374.69
2019-04-05T08:21:19.671Z,98375.03
2019-04-05T08:23:45.534Z,98379.95
2019-04-05T08:26:11.253Z,98380.61
2019-04-05T08:28:37.029Z,98388.94
2019-04-05T08:31:02.838Z,98400.02
2019-04-05T08:33:28.546Z,98403.15
2019-04-05T08:35:54.816Z,98403.61
2019-04-05T08:38:20.522Z,98414.88
2019-04-05T08:40:46.320Z,98411.45
2019-04-05T08:43:12.140Z,98409.50
2019-04-05T08:45:37.836Z,98409.14
2019-04-05T08:48:03.647Z,98411.66
2019-04-05T08:50:29.480Z,98420.41
2019-04-05T08:52:55.332Z,98423.03
2019-04-05T08:55:21.230Z,98430.27
2019-04-05T08:57:48.206Z,98430.69
2019-04-05T09:00:14.262Z,98435.36
2019-04-05T09:02:39.985Z,98439.21
2019-04-05T09:05:06.163Z,98449.70
2019-04-05T09:07:31.990Z,98457.66
2019-04-05T09:09:57.797Z,98449.52
2019-04-05T09:12:23.643Z,98447.18
2019-04-05T09:14:49.353Z,98440.41
2019-04-05T09:17:15.040Z,98449.89
2019-04-05T09:19:40.802Z,98456.20
2019-04-05T09:22:06.541Z,98463.27
2019-04-05T09:24:32.458Z,98460.48
2019-04-05T09:26:58.131Z,98479.55
2019-04-05T09:29:23.922Z,98477.09
2019-04-05T09:31:49.678Z,98478.80
2019-04-05T09:34:15.580Z,98478.28
2019-04-05T09:36:41.504Z,98482.18
2019-04-05T09:39:13.657Z,98484.20
2019-04-05T09:41:37.209Z,98487.16
2019-04-05T09:44:03.133Z,98479.34
2019-04-05T09:46:28.811Z,98499.54
2019-04-05T09:48:54.484Z,98503.38
2019-04-05T09:51:20.316Z,98507.45
2019-04-05T09:53:46.147Z,98510.18
2019-04-05T09:56:12.105Z,98510.56
2019-04-05T09:58:37.902Z,98513.73
2019-04-05T10:01:03.829Z,98510.02
2019-04-05T10:03:29.751Z,98507.41
2019-04-05T10:05:55.501Z,98513.55
2019-04-05T10:08:21.284Z,98516.50
2019-04-05T10:10:47.208Z,98519.55
2019-04-05T10:13:12.964Z,98518.91
2019-04-05T10:15:38.691Z,98516.52
2019-04-05T10:18:04.580Z,98519.55
2019-04-05T10:20:30.393Z,98526.08
2019-04-05T10:22:56.266Z,98517.65
2019-04-05T10:25:21.985Z,98522.60
2019-04-05T10:27:47.713Z,98521.45
2019-04-05T10:30:13.942Z,98528.90
2019-04-05T10:32:39.786Z,98529.69
2019-04-05T10:35:06.426Z,98535.66
2019-04-05T10:37:32.352Z,98544.87
2019-04-05T10:39:58.086Z,98534.34
2019-04-05T10:42:30.924Z,98541.34
2019-04-05T10:44:56.777Z,98543.24
2019-04-05T10:47:22.566Z,98545.36
2019-04-05T10:49:48.426Z,98547.81
2019-04-05T10:52:14.191Z,98553.06
2019-04-05T10:54:40.113Z,98548.80
2019-04-05T10:57:06.055Z,98550.14
2019-04-05T10:59:31.785Z,98547.03
2019-04-05T11:01:57.570Z,98548.97
2019-04-05T11:04:23.383Z,98551.27
2019-04-05T11:06:49.167Z,98556.95
2019-04-05T11:09:14.950Z,98553.72
2019-04-05T11:11:40.634Z,98558.22
2019-04-05T11:14:13.630Z,98560.43
2019-04-05T11:16:34.093Z,98555.23
2019-04-05T11:19:01.934Z,98560.64
2019-04-05T11:21:27.502Z,98557.00
2019-04-05T11:23:53.553Z,98553.30
2019-04-05T11:26:20.792Z,98554.09
2019-04-05T11:28:46.609Z,98559.40
2019-04-05T11:31:12.520Z,98561.90
2019-04-05T11:33:38.345Z,98565.01
2019-04-05T11:36:04.010Z,98563.35
2019-04-05T11:38:30.094Z,98560.25
2019-04-05T11:40:56.187Z,98561.75
2019-04-05T11:43:26.148Z,98562.41
2019-04-05T11:45:53.852Z,98567.51
2019-04-05T11:48:19.510Z,98561.77
2019-04-05T11:50:45.206Z,98559.97
2019-04-05T11:53:11.046Z,98559.72
2019-04-05T11:55:36.707Z,98574.09
2019-04-05T11:58:02.484Z,98575.00
2019-04-05T12:00:30.175Z,98571.06
2019-04-05T12:02:57.796Z,98572.01
2019-04-05T12:05:26.913Z,98565.98
2019-04-05T12:07:51.209Z,98562.52
2019-04-05T12:10:19.425Z,98563.21
2019-04-05T12:12:44.540Z,98560.34
2019-04-05T12:15:10.357Z,98569.61
2019-04-05T12:17:36.220Z,98567.05
2019-04-05T12:20:03.578Z,98567.11
2019-04-05T12:22:29.396Z,98564.23
2019-04-05T12:24:55.225Z,98563.55
2019-04-05T12:27:21.078Z,98561.48
2019-04-05T12:29:46.906Z,98558.04
2019-04-05T12:32:15.637Z,98563.06
2019-04-05T12:34:40.765Z,98561.81
2019-04-05T12:37:06.613Z,98564.80
2019-04-05T12:39:32.478Z,98562.75
2019-04-05T12:41:58.165Z,98566.10
2019-04-05T12:44:23.944Z,98564.48
2019-04-05T12:46:49.874Z,98558.66
2019-04-05T12:49:15.820Z,98549.55
2019-04-05T12:51:43.416Z,98560.99
2019-04-05T12:54:09.324Z,98552.84
2019-04-05T12:56:35.045Z,98553.16
2019-04-05T12:59:02.128Z,98550.69
2019-04-05T13:01:28.256Z,98551.77
2019-04-05T13:03:54.237Z,98553.16
2019-04-05T13:06:21.769Z,98548.19
2019-04-05T13:08:47.595Z,98553.27
2019-04-05T13:11:13.360Z,98544.84
2019-04-05T13:13:39.189Z,98552.13
2019-04-05T13:16:05.009Z,98546.49
2019-04-05T13:18:31.753Z,98541.66
2019-04-05T13:20:58.259Z,98542.08
2019-04-05T13:23:25.389Z,98541.16
2019-04-05T13:25:51.312Z,98537.59
2019-04-05T13:28:18.950Z,98539.22
2019-04-05T13:30:48.172Z,98539.56
2019-04-05T13:33:12.476Z,98544.08
2019-04-05T13:35:38.262Z,98535.48
2019-04-05T13:38:04.086Z,98540.36
2019-04-05T13:40:30.208Z,98540.20
2019-04-05T13:42:56.015Z,98534.96
2019-04-05T13:45:21.914Z,98531.32
2019-04-05T13:47:47.734Z,98523.37
2019-04-05T13:50:13.647Z,98526.13
2019-04-05T13:52:42.124Z,98531.11
2019-04-05T13:55:10.513Z,98534.39
2019-04-05T13:57:34.916Z,98536.66
2019-04-05T14:00:02.095Z,98534.25
2019-04-05T14:02:28.022Z,98537.13
2019-04-05T14:04:54.392Z,98535.50
2019-04-05T14:07:23.454Z,98533.77
2019-04-05T14:09:48.033Z,98534.89
2019-04-05T14:12:13.787Z,98533.82
2019-04-05T14:14:41.600Z,98537.63
2019-04-05T14:17:07.321Z,98538.13
2019-04-05T14:19:33.351Z,98526.13
2019-04-05T14:22:08.374Z,98535.18
2019-04-05T14:24:26.762Z,98528.34
2019-04-05T14:26:52.534Z,98529.63
2019-04-05T14:29:18.423Z,98530.04
2019-04-05T14:31:44.374Z,98535.72
2019-04-05T14:34:10.288Z,98537.91
2019-04-05T14:36:36.148Z,98530.97
2019-04-05T14:39:01.996Z,98533.06
2019-04-05T14:41:27.839Z,98537.89
2019-04-05T14:43:53.663Z,98537.44
2019-04-05T14:46:19.571Z,98545.81
2019-04-05T14:48:45.421Z,98540.94
2019-04-05T14:51:11.402Z,98542.83
2019-04-05T14:53:37.090Z,98548.68
2019-04-05T14:56:03.239Z,98547.80
2019-04-05T14:58:29.105Z,98546.49
2019-04-05T15:00:54.823Z,98550.14
2019-04-05T15:03:20.658Z,98542.34
2019-04-05T15:05:46.731Z,98544.48
2019-04-05T15:08:12.702Z,98545.16
2019-04-05T15:10:38.481Z,98550.42
2019-04-05T15:13:04.376Z,98544.48
2019-04-05T15:15:30.390Z,98545.87
2019-04-05T15:17:56.117Z,98543.80
2019-04-05T15:20:22.085Z,98538.28
2019-04-05T15:22:47.861Z,98539.59
2019-04-05T15:25:16.592Z,98539.42
2019-04-05T15:27:41.329Z,98545.02
2019-04-05T15:30:07.276Z,98544.75
2019-04-05T15:32:33.772Z,98547.91
2019-04-05T15:34:59.519Z,98552.73
2019-04-05T15:37:25.194Z,98553.83
2019-04-05T15:39:50.995Z,98556.45
2019-04-05T15:42:16.743Z,98562.03
2019-04-05T15:44:42.558Z,98557.59
2019-04-05T15:47:08.414Z,98560.37
2019-04-05T15:49:34.299Z,98564.06
2019-04-05T15:52:00.033Z,98559.83
2019-04-05T15:54:28.816Z,98567.08
2019-04-05T15:56:53.446Z,98555.56
2019-04-05T15:59:21.753Z,98565.34
2019-04-05T16:01:46.966Z,98561.78
2019-04-05T16:04:12.767Z,98561.69
2019-04-05T16:06:39.221Z,98561.78
2019-04-05T16:09:05.988Z,98561.44
2019-04-05T16:11:31.891Z,98565.00
2019-04-05T16:13:57.567Z,98567.71
2019-04-05T16:16:23.317Z,98569.44
2019-04-05T16:18:49.025Z,98570.72
2019-04-05T16:21:14.848Z,98573.28
2019-04-05T16:23:40.622Z,98580.97
2019-04-05T16:26:06.416Z,98581.64
2019-04-05T16:28:32.210Z,98584.83
2019-04-05T16:30:58.033Z,98585.46
2019-04-05T16:33:23.842Z,98582.20
2019-04-05T16:35:49.578Z,98580.34
2019-04-05T16:38:15.260Z,98579.04
2019-04-05T16:40:41.149Z,98579.39
2019-04-05T16:43:07.327Z,98584.94
2019-04-05T16:45:34.751Z,98584.20
2019-04-05T16:48:00.526Z,98587.48
2019-04-05T16:50:26.383Z,98584.47
2019-04-05T16:52:52.195Z,98585.86
2019-04-05T16:55:18.029Z,98583.64
2019-04-05T16:57:43.880Z,98588.09
2019-04-05T17:00:11.288Z,98586.36
2019-04-05T17:02:37.256Z,98589.63
2019-04-05T17:05:04.145Z,98589.28
2019-04-05T17:07:29.880Z,98592.45
2019-04-05T17:09:55.920Z,98594.88
2019-04-05T17:12:21.730Z,98595.22
2019-04-05T17:14:47.510Z,98597.05
2019-04-05T17:17:13.291Z,98599.83
2019-04-05T17:19:39.076Z,98599.98
2019-04-05T17:22:04.850Z,98601.84
2019-04-05T17:24:30.847Z,98607.23
2019-04-05T17:26:56.624Z,98608.18
2019-04-05T17:29:22.657Z,98607.95
2019-04-05T17:31:48.621Z,98614.37
2019-04-05T17:34:14.488Z,98610.84
2019-04-05T17:36:40.431Z,98609.38
2019-04-05T17:39:06.354Z,98616.22
2019-04-05T17:41:32.210Z,98619.58
2019-04-05T17:44:00.489Z,98616.66
2019-04-05T17:46:26.170Z,98620.81
2019-04-05T17:48:52.054Z,98614.58
2019-04-05T17:51:17.954Z,98620.77
2019-04-05T17:53:43.779Z,98624.09
2019-04-05T17:56:09.592Z,98619.17
2019-04-05T17:58:35.430Z,98630.11
2019-04-05T18:01:02.179Z,98633.52
2019-04-05T18:03:28.005Z,98634.28
2019-04-05T18:05:53.913Z,98619.31
2019-04-05T18:08:20.933Z,98624.83
2019-04-05T18:10:46.804Z,98624.55
2019-04-05T18:13:12.516Z,98626.06
2019-04-05T18:15:46.694Z,98637.27
2019-04-05T18:18:05.971Z,98631.29
2019-04-05T18:20:31.727Z,98632.92
2019-04-05T18:22:57.521Z,98635.94
2019-04-05T18:25:23.219Z,98640.89
2019-04-05T18:27:49.119Z,98639.56
2019-04-05T18:30:15.104Z,98641.83
2019-04-05T18:32:41.030Z,98641.56
2019-04-05T18:35:06.960Z,98650.95
2019-04-05T18:37:35.120Z,98657.67
2019-04-05T18:40:00.377Z,98653.21
2019-04-05T18:42:26.149Z,98656.26
2019-04-05T18:44:52.137Z,98658.70
2019-04-05T18:47:18.149Z,98661.66
2019-04-05T18:49:43.940Z,98666.13
2019-04-05T18:52:09.844Z,98668.58
2019-04-05T18:54:35.665Z,98664.32
2019-04-05T18:57:01.496Z,98670.11
2019-04-05T18:59:27.363Z,98675.61
2019-04-05T19:01:53.230Z,98669.36
2019-04-05T19:04:19.082Z,98677.42
2019-04-05T19:06:45.011Z,98680.56
2019-04-05T19:09:12.083Z,98686.23
2019-04-05T19:11:38.055Z,98687.20
2019-04-05T19:14:03.921Z,98688.53
2019-04-05T19:16:29.758Z,98686.05
2019-04-05T19:18:55.628Z,98691.18
2019-04-05T19:21:21.647Z,98690.61
2019-04-05T19:23:51.030Z,98688.59
2019-04-05T19:26:15.239Z,98695.33
2019-04-05T19:28:41.012Z,98695.91
2019-04-05T19:50:49.805Z,98713.63
2019-04-05T19:53:15.784Z,98714.50
2019-04-05T19:55:41.697Z,98719.69
2019-04-05T19:58:07.544Z,98719.78
2019-04-05T20:00:33.478Z,98724.88
2019-04-05T20:02:59.420Z,98719.01
2019-04-05T20:05:25.373Z,98723.92
2019-04-05T20:07:51.234Z,98717.77
2019-04-05T20:10:17.231Z,98727.14
2019-04-05T20:12:43.104Z,98732.53
2019-04-05T20:15:08.918Z,98736.80
2019-04-05T20:17:34.784Z,98734.42
2019-04-05T20:20:00.738Z,98738.05
2019-04-05T20:22:26.530Z,98741.43
2019-04-05T20:24:52.358Z,98741.27
2019-04-05T20:27:18.656Z,98754.25
2019-04-05T20:29:44.542Z,98754.05
2019-04-05T20:32:10.484Z,98758.63
2019-04-05T20:34:36.283Z,98759.08
2019-04-05T20:37:02.108Z,98759.56
2019-04-05T20:39:31.312Z,98760.69
2019-04-05T20:41:57.131Z,98765.80
2019-04-05T20:44:22.973Z,98767.23
2019-04-05T20:46:48.811Z,98776.11
2019-04-05T20:49:15.924Z,98784.80
2019-04-05T20:51:41.725Z,98785.65
2019-04-05T20:54:07.564Z,98785.34
2019-04-05T20:56:33.373Z,98787.59
2019-04-05T20:58:59.288Z,98791.52
2019-04-05T21:01:25.109Z,98791.52
2019-04-05T21:03:51.063Z,98797.68
2019-04-05T21:06:17.302Z,98801.27
2019-04-05T21:08:45.080Z,98794.98
2019-04-05T21:11:10.853Z,98800.06
2019-04-05T21:13:40.114Z,98802.59
2019-04-05T21:16:05.951Z,98804.84
2019-04-05T21:18:31.790Z,98799.25
2019-04-05T21:20:57.638Z,98805.61
2019-04-05T21:23:23.449Z,98808.78
2019-04-05T21:25:49.384Z,98807.66
2019-04-05T21:28:15.199Z,98801.91
2019-04-05T21:30:40.908Z,98809.30
2019-04-05T21:33:06.649Z,98806.05
2019-04-05T21:35:32.596Z,98808.20
2019-04-05T21:37:58.421Z,98809.53
2019-04-05T21:40:24.242Z,98813.96
2019-04-05T21:42:50.379Z,98813.41
2019-04-05T21:45:16.390Z,98815.37
2019-04-05T21:47:44.141Z,98814.01
2019-04-05T21:50:10.252Z,98819.83
2019-04-05T21:52:36.249Z,98817.66
2019-04-05T21:55:03.421Z,98821.03
2019-04-05T21:57:29.274Z,98831.12
2019-04-05T21:59:55.236Z,98832.50
2019-04-05T22:02:21.234Z,98829.52
2019-04-05T22:04:47.025Z,98835.10
2019-04-05T22:07:13.012Z,98832.25
2019-04-05T22:09:38.844Z,98840.41
2019-04-05T22:12:04.714Z,98842.21
2019-04-05T22:14:30.677Z,98835.08
2019-04-05T22:16:56.494Z,98841.28
2019-04-05T22:19:22.318Z,98846.19
2019-04-05T22:21:48.202Z,98840.04
2019-04-05T22:24:14.003Z,98839.64
2019-04-05T22:26:39.687Z,98834.20
2019-04-05T22:29:05.422Z,98839.50
2019-04-05T22:31:31.150Z,98836.91
2019-04-05T22:33:56.930Z,98841.95
2019-04-05T22:36:22.673Z,98844.47
2019-04-05T22:38:48.490Z,98844.39
2019-04-05T22:41:14.326Z,98849.14
2019-04-05T22:43:40.113Z,98845.37
2019-04-05T22:46:05.870Z,98854.09
2019-04-05T22:48:31.624Z,98845.13
2019-04-05T22:50:57.327Z,98856.11
2019-04-05T22:53:23.145Z,98849.34
2019-04-05T22:55:48.855Z,98852.08
2019-04-05T22:58:14.625Z,98852.08
2019-04-05T23:00:40.404Z,98857.17
2019-04-05T23:03:06.119Z,98856.32
2019-04-05T23:05:31.933Z,98853.53
2019-04-05T23:07:57.880Z,98849.34
2019-04-05T23:10:23.628Z,98851.03
2019-04-05T23:12:49.291Z,98856.81
2019-04-05T23:15:15.153Z,98854.02
2019-04-05T23:17:40.813Z,98862.97
2019-04-05T23:20:06.602Z,98860.72
2019-04-05T23:22:32.519Z,98863.43
2019-04-05T23:24:58.291Z,98862.81
2019-04-05T23:27:24.095Z,98863.50
2019-04-05T23:29:49.840Z,98863.05
2019-04-05T23:32:15.724Z,98859.63
2019-04-05T23:34:41.544Z,98840.34
2019-04-05T23:37:07.234Z,98854.78
2019-04-05T23:39:32.920Z,98858.36
2019-04-05T23:41:58.746Z,98860.80
2019-04-05T23:44:24.464Z,98863.08
2019-04-05T23:46:52.603Z,98869.30
2019-04-05T23:49:17.925Z,98856.60
2019-04-05T23:51:43.707Z,98862.16
2019-04-05T23:54:09.431Z,98856.23
2019-04-05T23:56:35.136Z,98850.93
2019-04-05T23:59:01.056Z,98858.47
